sensor_id;sensor_type;location;lat;lon;timestamp;temperature;humidity
3701;DHT22;1866;48.374;10.766;2023-03-01T00:00:53;0.30;1.00
3701;DHT22;1866;48.374;10.766;2023-03-01T00:03:20;0.40;1.00
3701;DHT22;1866;48.374;10.766;2023-03-01T00:05:47;0.30;1.00
3701;DHT22;1866;48.374;10.766;2023-03-01T00:08:14;0.30;1.00
3701;DHT22;1866;48.374;10.766;2023-03-01T00:10:42;0.30;1.00
3701;DHT22;1866;48.374;10.766;2023-03-01T00:13:09;0.40;1.00
3701;DHT22;1866;48.374;10.766;2023-03-01T00:15:38;0.40;1.00
3701;DHT22;1866;48.374;10.766;2023-03-01T00:18:05;0.40;1.00
3701;DHT22;1866;48.374;10.766;2023-03-01T00:20:33;0.40;1.00
3701;DHT22;1866;48.374;10.766;2023-03-01T00:23:00;0.40;1.00
3701;DHT22;1866;48.374;10.766;2023-03-01T00:25:27;0.40;1.00
3701;DHT22;1866;48.374;10.766;2023-03-01T00:27:55;0.40;1.00
3701;DHT22;1866;48.374;10.766;2023-03-01T00:30:22;0.40;1.00
3701;DHT22;1866;48.374;10.766;2023-03-01T00:32:49;0.40;1.00
3701;DHT22;1866;48.374;10.766;2023-03-01T00:35:15;0.30;1.00
3701;DHT22;1866;48.374;10.766;2023-03-01T00:37:42;0.30;1.00
3701;DHT22;1866;48.374;10.766;2023-03-01T00:40:10;0.30;1.00
3701;DHT22;1866;48.374;10.766;2023-03-01T00:42:37;0.30;1.00
3701;DHT22;1866;48.374;10.766;2023-03-01T00:45:07;0.30;1.00
3701;DHT22;1866;48.374;10.766;2023-03-01T00:47:34;0.30;1.00
3701;DHT22;1866;48.374;10.766;2023-03-01T00:50:01;0.30;1.00
3701;DHT22;1866;48.374;10.766;2023-03-01T00:52:27;0.30;1.00
3701;DHT22;1866;48.374;10.766;2023-03-01T00:54:54;0.20;1.00
3701;DHT22;1866;48.374;10.766;2023-03-01T00:57:23;0.20;1.00
3701;DHT22;1866;48.374;10.766;2023-03-01T00:59:49;0.20;1.00
3701;DHT22;1866;48.374;10.766;2023-03-01T01:02:19;0.20;1.00
3701;DHT22;1866;48.374;10.766;2023-03-01T01:04:46;0.20;1.00
3701;DHT22;1866;48.374;10.766;2023-03-01T01:07:14;0.20;1.00
3701;DHT22;1866;48.374;10.766;2023-03-01T01:09:41;0.20;1.00
3701;DHT22;1866;48.374;10.766;2023-03-01T01:12:08;0.20;1.00
3701;DHT22;1866;48.374;10.766;2023-03-01T01:14:35;0.20;1.00
3701;DHT22;1866;48.374;10.766;2023-03-01T01:17:02;0.20;1.00
3701;DHT22;1866;48.374;10.766;2023-03-01T01:19:30;0.20;1.00
3701;DHT22;1866;48.374;10.766;2023-03-01T01:21:57;0.20;1.00
3701;DHT22;1866;48.374;10.766;2023-03-01T01:24:24;0.20;1.00
3701;DHT22;1866;48.374;10.766;2023-03-01T01:26:51;0.20;1.00
3701;DHT22;1866;48.374;10.766;2023-03-01T01:29:17;0.20;1.00
3701;DHT22;1866;48.374;10.766;2023-03-01T01:31:44;0.20;1.00
3701;DHT22;1866;48.374;10.766;2023-03-01T01:34:14;0.20;1.00
3701;DHT22;1866;48.374;10.766;2023-03-01T01:36:42;0.20;1.00
3701;DHT22;1866;48.374;10.766;2023-03-01T01:39:10;0.20;1.00
3701;DHT22;1866;48.374;10.766;2023-03-01T01:41:39;0.20;1.00
3701;DHT22;1866;48.374;10.766;2023-03-01T01:44:15;0.20;1.00
3701;DHT22;1866;48.374;10.766;2023-03-01T01:46:45;0.20;1.00
3701;DHT22;1866;48.374;10.766;2023-03-01T01:49:25;0.20;1.00
3701;DHT22;1866;48.374;10.766;2023-03-01T01:51:57;0.20;1.00
3701;DHT22;1866;48.374;10.766;2023-03-01T01:54:31;0.20;1.00
3701;DHT22;1866;48.374;10.766;2023-03-01T01:57:03;0.20;1.00
3701;DHT22;1866;48.374;10.766;2023-03-01T01:59:34;0.20;1.00
3701;DHT22;1866;48.374;10.766;2023-03-01T02:02:03;0.10;1.00
3701;DHT22;1866;48.374;10.766;2023-03-01T02:04:31;0.10;1.00
3701;DHT22;1866;48.374;10.766;2023-03-01T02:07:02;0.10;1.00
3701;DHT22;1866;48.374;10.766;2023-03-01T02:09:30;0.10;1.00
3701;DHT22;1866;48.374;10.766;2023-03-01T02:11:58;0.10;1.00
3701;DHT22;1866;48.374;10.766;2023-03-01T02:14:25;0.10;1.00
3701;DHT22;1866;48.374;10.766;2023-03-01T02:16:53;0.10;1.00
3701;DHT22;1866;48.374;10.766;2023-03-01T02:19:31;0.10;1.00
3701;DHT22;1866;48.374;10.766;2023-03-01T02:22:13;0.10;1.00
3701;DHT22;1866;48.374;10.766;2023-03-01T02:24:47;0.10;1.00
3701;DHT22;1866;48.374;10.766;2023-03-01T02:27:19;0.00;1.00
3701;DHT22;1866;48.374;10.766;2023-03-01T02:29:51;0.00;1.00
3701;DHT22;1866;48.374;10.766;2023-03-01T02:32:19;0.00;1.00
3701;DHT22;1866;48.374;10.766;2023-03-01T02:34:50;0.00;1.00
3701;DHT22;1866;48.374;10.766;2023-03-01T02:37:18;0.00;1.00
3701;DHT22;1866;48.374;10.766;2023-03-01T02:39:55;-0.10;1.00
3701;DHT22;1866;48.374;10.766;2023-03-01T02:42:26;0.00;1.00
3701;DHT22;1866;48.374;10.766;2023-03-01T02:44:54;-0.10;1.00
3701;DHT22;1866;48.374;10.766;2023-03-01T02:47:22;-0.10;1.00
3701;DHT22;1866;48.374;10.766;2023-03-01T02:49:49;-0.10;1.00
3701;DHT22;1866;48.374;10.766;2023-03-01T02:52:35;-0.10;1.00
3701;DHT22;1866;48.374;10.766;2023-03-01T02:55:09;-0.10;1.00
3701;DHT22;1866;48.374;10.766;2023-03-01T02:57:39;-0.10;1.00
3701;DHT22;1866;48.374;10.766;2023-03-01T03:00:10;-0.10;1.00
3701;DHT22;1866;48.374;10.766;2023-03-01T03:02:44;-0.10;1.00
3701;DHT22;1866;48.374;10.766;2023-03-01T03:05:13;-0.10;1.00
3701;DHT22;1866;48.374;10.766;2023-03-01T03:07:42;-0.10;1.00
3701;DHT22;1866;48.374;10.766;2023-03-01T03:10:12;-0.10;1.00
3701;DHT22;1866;48.374;10.766;2023-03-01T03:12:39;-0.10;1.00
3701;DHT22;1866;48.374;10.766;2023-03-01T03:15:10;-0.20;1.00
3701;DHT22;1866;48.374;10.766;2023-03-01T03:17:39;-0.10;1.00
3701;DHT22;1866;48.374;10.766;2023-03-01T03:20:08;-0.10;1.00
3701;DHT22;1866;48.374;10.766;2023-03-01T03:22:37;-0.10;1.00
3701;DHT22;1866;48.374;10.766;2023-03-01T03:25:05;-0.10;1.00
3701;DHT22;1866;48.374;10.766;2023-03-01T03:27:35;-0.10;1.00
3701;DHT22;1866;48.374;10.766;2023-03-01T03:30:03;-0.10;1.00
3701;DHT22;1866;48.374;10.766;2023-03-01T03:32:35;-0.10;1.00
3701;DHT22;1866;48.374;10.766;2023-03-01T03:35:02;-0.10;1.00
3701;DHT22;1866;48.374;10.766;2023-03-01T03:37:34;-0.10;1.00
3701;DHT22;1866;48.374;10.766;2023-03-01T03:40:19;-0.10;1.00
3701;DHT22;1866;48.374;10.766;2023-03-01T03:42:46;-0.10;1.00
3701;DHT22;1866;48.374;10.766;2023-03-01T03:45:13;-0.10;1.00
3701;DHT22;1866;48.374;10.766;2023-03-01T03:47:41;-0.10;1.00
3701;DHT22;1866;48.374;10.766;2023-03-01T03:50:09;-0.10;1.00
3701;DHT22;1866;48.374;10.766;2023-03-01T03:52:37;-0.10;1.00
3701;DHT22;1866;48.374;10.766;2023-03-01T03:55:04;-0.10;1.00
3701;DHT22;1866;48.374;10.766;2023-03-01T03:57:34;-0.10;1.00
3701;DHT22;1866;48.374;10.766;2023-03-01T04:00:01;-0.10;1.00
3701;DHT22;1866;48.374;10.766;2023-03-01T04:02:30;-0.10;1.00
3701;DHT22;1866;48.374;10.766;2023-03-01T04:04:59;-0.10;1.00
3701;DHT22;1866;48.374;10.766;2023-03-01T04:07:25;-0.10;1.00
3701;DHT22;1866;48.374;10.766;2023-03-01T04:09:52;-0.10;1.00
3701;DHT22;1866;48.374;10.766;2023-03-01T04:12:19;-0.10;1.00
3701;DHT22;1866;48.374;10.766;2023-03-01T04:14:48;-0.10;1.00
3701;DHT22;1866;48.374;10.766;2023-03-01T04:17:15;-0.10;1.00
3701;DHT22;1866;48.374;10.766;2023-03-01T04:19:45;-0.10;1.00
3701;DHT22;1866;48.374;10.766;2023-03-01T04:22:15;-0.10;1.00
3701;DHT22;1866;48.374;10.766;2023-03-01T04:24:43;-0.10;1.00
3701;DHT22;1866;48.374;10.766;2023-03-01T04:27:10;-0.10;1.00
3701;DHT22;1866;48.374;10.766;2023-03-01T04:29:39;-0.10;1.00
3701;DHT22;1866;48.374;10.766;2023-03-01T04:32:07;-0.10;1.00
3701;DHT22;1866;48.374;10.766;2023-03-01T04:34:34;-0.10;1.00
3701;DHT22;1866;48.374;10.766;2023-03-01T04:37:01;-0.10;1.00
3701;DHT22;1866;48.374;10.766;2023-03-01T04:39:31;-0.20;1.00
3701;DHT22;1866;48.374;10.766;2023-03-01T04:41:58;-0.20;1.00
3701;DHT22;1866;48.374;10.766;2023-03-01T04:44:25;-0.20;1.00
3701;DHT22;1866;48.374;10.766;2023-03-01T04:46:51;-0.20;1.00
3701;DHT22;1866;48.374;10.766;2023-03-01T04:49:18;-0.20;1.00
3701;DHT22;1866;48.374;10.766;2023-03-01T04:51:45;-0.30;1.00
3701;DHT22;1866;48.374;10.766;2023-03-01T04:54:12;-0.30;1.00
3701;DHT22;1866;48.374;10.766;2023-03-01T04:56:40;-0.30;1.00
3701;DHT22;1866;48.374;10.766;2023-03-01T04:59:07;-0.30;1.00
3701;DHT22;1866;48.374;10.766;2023-03-01T05:01:35;-0.40;1.00
3701;DHT22;1866;48.374;10.766;2023-03-01T05:04:02;-0.40;1.00
3701;DHT22;1866;48.374;10.766;2023-03-01T05:06:31;-0.40;1.00
3701;DHT22;1866;48.374;10.766;2023-03-01T05:08:58;-0.50;1.00
3701;DHT22;1866;48.374;10.766;2023-03-01T05:11:25;-0.60;1.00
3701;DHT22;1866;48.374;10.766;2023-03-01T05:13:54;-0.60;1.00
3701;DHT22;1866;48.374;10.766;2023-03-01T05:16:21;-0.70;1.00
3701;DHT22;1866;48.374;10.766;2023-03-01T05:18:48;-0.80;1.00
3701;DHT22;1866;48.374;10.766;2023-03-01T05:21:17;-0.80;1.00
3701;DHT22;1866;48.374;10.766;2023-03-01T05:23:44;-0.90;1.00
3701;DHT22;1866;48.374;10.766;2023-03-01T05:26:12;-1.00;1.00
3701;DHT22;1866;48.374;10.766;2023-03-01T05:28:40;-1.00;1.00
3701;DHT22;1866;48.374;10.766;2023-03-01T05:31:08;-1.10;1.00
3701;DHT22;1866;48.374;10.766;2023-03-01T05:33:36;-1.10;1.00
3701;DHT22;1866;48.374;10.766;2023-03-01T05:36:04;-1.20;1.00
3701;DHT22;1866;48.374;10.766;2023-03-01T05:38:31;-1.20;1.00
3701;DHT22;1866;48.374;10.766;2023-03-01T05:40:58;-1.30;1.00
3701;DHT22;1866;48.374;10.766;2023-03-01T05:43:25;-1.30;1.00
3701;DHT22;1866;48.374;10.766;2023-03-01T05:45:52;-1.40;1.00
3701;DHT22;1866;48.374;10.766;2023-03-01T05:48:20;-1.40;1.00
3701;DHT22;1866;48.374;10.766;2023-03-01T05:50:47;-1.40;1.00
3701;DHT22;1866;48.374;10.766;2023-03-01T05:53:16;-1.40;1.00
3701;DHT22;1866;48.374;10.766;2023-03-01T05:55:43;-1.50;1.00
3701;DHT22;1866;48.374;10.766;2023-03-01T05:58:17;-1.50;1.00
3701;DHT22;1866;48.374;10.766;2023-03-01T06:00:46;-1.50;1.00
3701;DHT22;1866;48.374;10.766;2023-03-01T06:03:14;-1.50;1.00
3701;DHT22;1866;48.374;10.766;2023-03-01T06:05:43;-1.60;1.00
3701;DHT22;1866;48.374;10.766;2023-03-01T06:08:11;-1.60;1.00
3701;DHT22;1866;48.374;10.766;2023-03-01T06:10:38;-1.60;1.00
3701;DHT22;1866;48.374;10.766;2023-03-01T06:13:06;-1.60;1.00
3701;DHT22;1866;48.374;10.766;2023-03-01T06:15:33;-1.60;1.00
3701;DHT22;1866;48.374;10.766;2023-03-01T06:17:59;-1.60;1.00
3701;DHT22;1866;48.374;10.766;2023-03-01T06:20:28;-1.60;1.00
3701;DHT22;1866;48.374;10.766;2023-03-01T06:22:56;-1.60;1.00
3701;DHT22;1866;48.374;10.766;2023-03-01T06:25:25;-1.70;1.00
3701;DHT22;1866;48.374;10.766;2023-03-01T06:27:53;-1.60;1.00
3701;DHT22;1866;48.374;10.766;2023-03-01T06:30:21;-1.60;1.00
3701;DHT22;1866;48.374;10.766;2023-03-01T06:32:48;-1.70;1.00
3701;DHT22;1866;48.374;10.766;2023-03-01T06:35:16;-1.60;1.00
3701;DHT22;1866;48.374;10.766;2023-03-01T06:37:44;-1.70;1.00
3701;DHT22;1866;48.374;10.766;2023-03-01T06:40:13;-1.70;1.00
3701;DHT22;1866;48.374;10.766;2023-03-01T06:42:42;-1.70;1.00
3701;DHT22;1866;48.374;10.766;2023-03-01T06:45:09;-1.60;1.00
3701;DHT22;1866;48.374;10.766;2023-03-01T06:47:36;-1.60;1.00
3701;DHT22;1866;48.374;10.766;2023-03-01T06:50:04;-1.50;1.00
3701;DHT22;1866;48.374;10.766;2023-03-01T06:52:31;-1.50;1.00
3701;DHT22;1866;48.374;10.766;2023-03-01T06:54:58;-1.50;1.00
3701;DHT22;1866;48.374;10.766;2023-03-01T06:57:26;-1.40;1.00
3701;DHT22;1866;48.374;10.766;2023-03-01T06:59:53;-1.40;1.00
3701;DHT22;1866;48.374;10.766;2023-03-01T07:02:20;-1.30;1.00
3701;DHT22;1866;48.374;10.766;2023-03-01T07:04:48;-1.40;1.00
3701;DHT22;1866;48.374;10.766;2023-03-01T07:07:15;-1.30;1.00
3701;DHT22;1866;48.374;10.766;2023-03-01T07:09:43;-1.20;1.00
3701;DHT22;1866;48.374;10.766;2023-03-01T07:12:10;-1.30;1.00
3701;DHT22;1866;48.374;10.766;2023-03-01T07:14:39;-1.30;1.00
3701;DHT22;1866;48.374;10.766;2023-03-01T07:17:05;-1.10;1.00
3701;DHT22;1866;48.374;10.766;2023-03-01T07:19:32;-1.20;1.00
3701;DHT22;1866;48.374;10.766;2023-03-01T07:21:59;-1.20;1.00
3701;DHT22;1866;48.374;10.766;2023-03-01T07:24:26;-1.20;1.00
3701;DHT22;1866;48.374;10.766;2023-03-01T07:26:53;-1.10;1.00
3701;DHT22;1866;48.374;10.766;2023-03-01T07:29:20;-1.10;1.00
3701;DHT22;1866;48.374;10.766;2023-03-01T07:31:48;-1.00;1.00
3701;DHT22;1866;48.374;10.766;2023-03-01T07:34:15;-0.90;1.00
3701;DHT22;1866;48.374;10.766;2023-03-01T07:36:42;-0.80;1.00
3701;DHT22;1866;48.374;10.766;2023-03-01T07:39:10;-0.70;1.00
3701;DHT22;1866;48.374;10.766;2023-03-01T07:41:37;-0.60;1.00
3701;DHT22;1866;48.374;10.766;2023-03-01T07:44:05;-0.60;1.00
3701;DHT22;1866;48.374;10.766;2023-03-01T07:46:32;-0.50;1.00
3701;DHT22;1866;48.374;10.766;2023-03-01T07:49:00;-0.50;1.00
3701;DHT22;1866;48.374;10.766;2023-03-01T07:51:27;-0.50;1.00
3701;DHT22;1866;48.374;10.766;2023-03-01T07:53:54;-0.50;1.00
3701;DHT22;1866;48.374;10.766;2023-03-01T07:56:21;-0.40;1.00
3701;DHT22;1866;48.374;10.766;2023-03-01T07:58:48;-0.20;1.00
3701;DHT22;1866;48.374;10.766;2023-03-01T08:01:19;-0.30;1.00
3701;DHT22;1866;48.374;10.766;2023-03-01T08:03:47;-0.20;1.00
3701;DHT22;1866;48.374;10.766;2023-03-01T08:06:16;-0.30;1.00
3701;DHT22;1866;48.374;10.766;2023-03-01T08:08:43;-0.20;1.00
3701;DHT22;1866;48.374;10.766;2023-03-01T08:11:12;-0.10;1.00
3701;DHT22;1866;48.374;10.766;2023-03-01T08:13:40;-0.10;1.00
3701;DHT22;1866;48.374;10.766;2023-03-01T08:16:09;-0.10;1.00
3701;DHT22;1866;48.374;10.766;2023-03-01T08:18:36;-0.10;1.00
3701;DHT22;1866;48.374;10.766;2023-03-01T08:21:04;-0.10;1.00
3701;DHT22;1866;48.374;10.766;2023-03-01T08:23:32;0.00;1.00
3701;DHT22;1866;48.374;10.766;2023-03-01T08:26:07;0.20;1.00
3701;DHT22;1866;48.374;10.766;2023-03-01T08:28:34;0.30;1.00
3701;DHT22;1866;48.374;10.766;2023-03-01T08:31:01;0.20;1.00
3701;DHT22;1866;48.374;10.766;2023-03-01T08:33:29;0.30;1.00
3701;DHT22;1866;48.374;10.766;2023-03-01T08:36:03;0.30;1.00
3701;DHT22;1866;48.374;10.766;2023-03-01T08:38:33;0.40;1.00
3701;DHT22;1866;48.374;10.766;2023-03-01T08:41:02;0.10;1.00
3701;DHT22;1866;48.374;10.766;2023-03-01T08:43:29;0.20;1.00
3701;DHT22;1866;48.374;10.766;2023-03-01T08:45:56;0.10;1.00
3701;DHT22;1866;48.374;10.766;2023-03-01T08:48:23;0.20;1.00
3701;DHT22;1866;48.374;10.766;2023-03-01T08:50:50;0.30;1.00
3701;DHT22;1866;48.374;10.766;2023-03-01T08:53:17;0.30;1.00
3701;DHT22;1866;48.374;10.766;2023-03-01T08:55:45;0.40;1.00
3701;DHT22;1866;48.374;10.766;2023-03-01T08:58:12;0.60;1.00
3701;DHT22;1866;48.374;10.766;2023-03-01T09:00:39;0.70;1.00
3701;DHT22;1866;48.374;10.766;2023-03-01T09:03:06;0.60;1.00
3701;DHT22;1866;48.374;10.766;2023-03-01T09:05:33;0.60;1.00
3701;DHT22;1866;48.374;10.766;2023-03-01T09:08:01;0.60;1.00
3701;DHT22;1866;48.374;10.766;2023-03-01T09:10:28;0.60;1.00
3701;DHT22;1866;48.374;10.766;2023-03-01T09:12:56;0.70;1.00
3701;DHT22;1866;48.374;10.766;2023-03-01T09:15:23;0.80;1.00
3701;DHT22;1866;48.374;10.766;2023-03-01T09:17:50;0.90;1.00
3701;DHT22;1866;48.374;10.766;2023-03-01T09:20:17;0.90;1.00
3701;DHT22;1866;48.374;10.766;2023-03-01T09:22:44;1.00;1.00
3701;DHT22;1866;48.374;10.766;2023-03-01T09:25:10;1.30;1.00
3701;DHT22;1866;48.374;10.766;2023-03-01T09:27:37;1.30;1.00
3701;DHT22;1866;48.374;10.766;2023-03-01T09:30:07;1.20;1.00
3701;DHT22;1866;48.374;10.766;2023-03-01T09:32:34;1.40;1.00
3701;DHT22;1866;48.374;10.766;2023-03-01T09:35:01;1.40;1.00
3701;DHT22;1866;48.374;10.766;2023-03-01T09:37:30;1.50;1.00
3701;DHT22;1866;48.374;10.766;2023-03-01T09:39:57;1.50;1.00
3701;DHT22;1866;48.374;10.766;2023-03-01T09:42:24;1.60;1.00
3701;DHT22;1866;48.374;10.766;2023-03-01T09:44:56;1.50;1.00
3701;DHT22;1866;48.374;10.766;2023-03-01T09:47:27;1.50;1.00
3701;DHT22;1866;48.374;10.766;2023-03-01T09:50:01;1.70;1.00
3701;DHT22;1866;48.374;10.766;2023-03-01T09:52:36;1.80;1.00
3701;DHT22;1866;48.374;10.766;2023-03-01T09:55:10;1.50;1.00
3701;DHT22;1866;48.374;10.766;2023-03-01T09:57:43;1.50;1.00
3701;DHT22;1866;48.374;10.766;2023-03-01T10:00:19;1.70;1.00
3701;DHT22;1866;48.374;10.766;2023-03-01T10:02:52;1.70;1.00
3701;DHT22;1866;48.374;10.766;2023-03-01T10:05:35;2.00;1.00
3701;DHT22;1866;48.374;10.766;2023-03-01T10:08:29;2.00;1.00
3701;DHT22;1866;48.374;10.766;2023-03-01T10:10:58;2.00;1.00
3701;DHT22;1866;48.374;10.766;2023-03-01T10:13:29;2.30;1.00
3701;DHT22;1866;48.374;10.766;2023-03-01T10:16:03;2.20;1.00
3701;DHT22;1866;48.374;10.766;2023-03-01T10:18:34;2.20;1.00
3701;DHT22;1866;48.374;10.766;2023-03-01T10:21:13;2.30;1.00
3701;DHT22;1866;48.374;10.766;2023-03-01T10:23:40;2.50;1.00
3701;DHT22;1866;48.374;10.766;2023-03-01T10:26:17;2.50;1.00
3701;DHT22;1866;48.374;10.766;2023-03-01T10:28:57;2.60;1.00
3701;DHT22;1866;48.374;10.766;2023-03-01T10:31:39;2.50;1.00
3701;DHT22;1866;48.374;10.766;2023-03-01T10:34:12;2.80;1.00
3701;DHT22;1866;48.374;10.766;2023-03-01T10:36:40;2.70;1.00
3701;DHT22;1866;48.374;10.766;2023-03-01T10:39:13;2.50;1.00
3701;DHT22;1866;48.374;10.766;2023-03-01T10:41:58;2.70;1.00
3701;DHT22;1866;48.374;10.766;2023-03-01T10:44:37;2.80;1.00
3701;DHT22;1866;48.374;10.766;2023-03-01T10:47:05;2.90;1.00
3701;DHT22;1866;48.374;10.766;2023-03-01T10:49:34;3.20;1.00
3701;DHT22;1866;48.374;10.766;2023-03-01T10:52:17;3.50;1.00
3701;DHT22;1866;48.374;10.766;2023-03-01T10:54:52;3.40;1.00
3701;DHT22;1866;48.374;10.766;2023-03-01T10:57:29;3.10;1.00
3701;DHT22;1866;48.374;10.766;2023-03-01T11:00:19;3.20;1.00
3701;DHT22;1866;48.374;10.766;2023-03-01T11:02:48;3.50;1.00
3701;DHT22;1866;48.374;10.766;2023-03-01T11:05:24;3.60;1.00
3701;DHT22;1866;48.374;10.766;2023-03-01T11:07:54;3.60;1.00
3701;DHT22;1866;48.374;10.766;2023-03-01T11:10:24;3.70;1.00
3701;DHT22;1866;48.374;10.766;2023-03-01T11:12:51;3.80;1.00
3701;DHT22;1866;48.374;10.766;2023-03-01T11:15:25;3.80;1.00
3701;DHT22;1866;48.374;10.766;2023-03-01T11:17:52;3.50;1.00
3701;DHT22;1866;48.374;10.766;2023-03-01T11:20:25;3.60;1.00
3701;DHT22;1866;48.374;10.766;2023-03-01T11:22:54;3.70;1.00
3701;DHT22;1866;48.374;10.766;2023-03-01T11:25:25;3.70;1.00
3701;DHT22;1866;48.374;10.766;2023-03-01T11:27:53;4.00;1.00
3701;DHT22;1866;48.374;10.766;2023-03-01T11:30:24;3.70;1.00
3701;DHT22;1866;48.374;10.766;2023-03-01T11:33:01;3.60;1.00
3701;DHT22;1866;48.374;10.766;2023-03-01T11:35:32;3.70;1.00
3701;DHT22;1866;48.374;10.766;2023-03-01T11:38:10;4.00;1.00
3701;DHT22;1866;48.374;10.766;2023-03-01T11:40:44;4.30;1.00
3701;DHT22;1866;48.374;10.766;2023-03-01T11:43:17;4.00;1.00
3701;DHT22;1866;48.374;10.766;2023-03-01T11:46:02;4.20;1.00
3701;DHT22;1866;48.374;10.766;2023-03-01T11:48:44;4.20;1.00
3701;DHT22;1866;48.374;10.766;2023-03-01T11:51:22;4.00;1.00
3701;DHT22;1866;48.374;10.766;2023-03-01T11:54:04;4.30;1.00
3701;DHT22;1866;48.374;10.766;2023-03-01T11:56:36;4.60;1.00
3701;DHT22;1866;48.374;10.766;2023-03-01T11:59:29;4.80;1.00
3701;DHT22;1866;48.374;10.766;2023-03-01T12:02:21;4.80;1.00
3701;DHT22;1866;48.374;10.766;2023-03-01T12:05:11;5.10;1.00
3701;DHT22;1866;48.374;10.766;2023-03-01T12:07:49;5.00;1.00
3701;DHT22;1866;48.374;10.766;2023-03-01T12:10:26;5.00;1.00
3701;DHT22;1866;48.374;10.766;2023-03-01T12:13:21;5.30;1.00
3701;DHT22;1866;48.374;10.766;2023-03-01T12:16:14;5.30;1.00
3701;DHT22;1866;48.374;10.766;2023-03-01T12:19:05;5.10;1.00
3701;DHT22;1866;48.374;10.766;2023-03-01T12:21:44;5.00;1.00
3701;DHT22;1866;48.374;10.766;2023-03-01T12:24:33;5.20;1.00
3701;DHT22;1866;48.374;10.766;2023-03-01T12:27:15;5.30;1.00
3701;DHT22;1866;48.374;10.766;2023-03-01T12:29:54;5.10;1.00
3701;DHT22;1866;48.374;10.766;2023-03-01T12:32:33;5.30;1.00
3701;DHT22;1866;48.374;10.766;2023-03-01T12:38:08;5.60;1.00
3701;DHT22;1866;48.374;10.766;2023-03-01T12:43:46;5.20;1.00
3701;DHT22;1866;48.374;10.766;2023-03-01T12:46:25;5.20;1.00
3701;DHT22;1866;48.374;10.766;2023-03-01T12:49:01;5.40;1.00
3701;DHT22;1866;48.374;10.766;2023-03-01T12:51:31;5.00;1.00
3701;DHT22;1866;48.374;10.766;2023-03-01T12:54:04;5.20;1.00
3701;DHT22;1866;48.374;10.766;2023-03-01T12:56:35;5.10;1.00
3701;DHT22;1866;48.374;10.766;2023-03-01T12:59:12;5.40;1.00
3701;DHT22;1866;48.374;10.766;2023-03-01T13:01:45;5.60;1.00
3701;DHT22;1866;48.374;10.766;2023-03-01T13:04:27;5.50;1.00
3701;DHT22;1866;48.374;10.766;2023-03-01T13:07:11;5.50;1.00
3701;DHT22;1866;48.374;10.766;2023-03-01T13:09:43;5.60;1.00
3701;DHT22;1866;48.374;10.766;2023-03-01T13:12:51;5.60;1.00
3701;DHT22;1866;48.374;10.766;2023-03-01T13:15:33;5.60;1.00
3701;DHT22;1866;48.374;10.766;2023-03-01T13:18:02;5.60;1.00
3701;DHT22;1866;48.374;10.766;2023-03-01T13:20:35;5.70;1.00
3701;DHT22;1866;48.374;10.766;2023-03-01T13:23:23;5.50;1.00
3701;DHT22;1866;48.374;10.766;2023-03-01T13:26:09;5.90;1.00
3701;DHT22;1866;48.374;10.766;2023-03-01T13:31:59;5.60;1.00
3701;DHT22;1866;48.374;10.766;2023-03-01T13:34:50;5.90;1.00
3701;DHT22;1866;48.374;10.766;2023-03-01T13:37:25;5.60;1.00
3701;DHT22;1866;48.374;10.766;2023-03-01T13:39:55;5.60;1.00
3701;DHT22;1866;48.374;10.766;2023-03-01T13:42:35;5.80;1.00
3701;DHT22;1866;48.374;10.766;2023-03-01T13:47:50;6.00;1.00
3701;DHT22;1866;48.374;10.766;2023-03-01T13:50:21;5.90;1.00
3701;DHT22;1866;48.374;10.766;2023-03-01T13:52:53;6.00;1.00
3701;DHT22;1866;48.374;10.766;2023-03-01T13:55:27;6.00;1.00
3701;DHT22;1866;48.374;10.766;2023-03-01T13:57:58;6.00;1.00
3701;DHT22;1866;48.374;10.766;2023-03-01T14:00:38;6.10;1.00
3701;DHT22;1866;48.374;10.766;2023-03-01T14:03:10;6.10;1.00
3701;DHT22;1866;48.374;10.766;2023-03-01T14:05:38;6.10;1.00
3701;DHT22;1866;48.374;10.766;2023-03-01T14:08:18;6.00;1.00
3701;DHT22;1866;48.374;10.766;2023-03-01T14:13:51;6.00;1.00
3701;DHT22;1866;48.374;10.766;2023-03-01T14:16:30;6.10;1.00
3701;DHT22;1866;48.374;10.766;2023-03-01T14:19:10;6.00;1.00
3701;DHT22;1866;48.374;10.766;2023-03-01T14:21:39;6.00;1.00
3701;DHT22;1866;48.374;10.766;2023-03-01T14:24:13;6.00;1.00
3701;DHT22;1866;48.374;10.766;2023-03-01T14:26:42;6.10;1.00
3701;DHT22;1866;48.374;10.766;2023-03-01T14:29:24;6.20;1.00
3701;DHT22;1866;48.374;10.766;2023-03-01T14:31:52;6.20;1.00
3701;DHT22;1866;48.374;10.766;2023-03-01T14:34:20;6.30;1.00
3701;DHT22;1866;48.374;10.766;2023-03-01T14:36:47;6.30;1.00
3701;DHT22;1866;48.374;10.766;2023-03-01T14:39:19;6.30;1.00
3701;DHT22;1866;48.374;10.766;2023-03-01T14:41:50;6.30;1.00
3701;DHT22;1866;48.374;10.766;2023-03-01T14:44:21;6.50;1.00
3701;DHT22;1866;48.374;10.766;2023-03-01T14:46:54;6.40;1.00
3701;DHT22;1866;48.374;10.766;2023-03-01T14:49:24;6.50;1.00
3701;DHT22;1866;48.374;10.766;2023-03-01T14:51:54;6.60;1.00
3701;DHT22;1866;48.374;10.766;2023-03-01T14:54:25;6.40;1.00
3701;DHT22;1866;48.374;10.766;2023-03-01T14:56:53;6.30;1.00
3701;DHT22;1866;48.374;10.766;2023-03-01T14:59:22;6.50;1.00
3701;DHT22;1866;48.374;10.766;2023-03-01T15:01:51;6.40;1.00
3701;DHT22;1866;48.374;10.766;2023-03-01T15:04:21;6.40;1.00
3701;DHT22;1866;48.374;10.766;2023-03-01T15:06:51;6.40;1.00
3701;DHT22;1866;48.374;10.766;2023-03-01T15:09:18;6.30;1.00
3701;DHT22;1866;48.374;10.766;2023-03-01T15:11:45;6.20;1.00
3701;DHT22;1866;48.374;10.766;2023-03-01T15:14:29;6.10;1.00
3701;DHT22;1866;48.374;10.766;2023-03-01T15:17:04;6.20;1.00
3701;DHT22;1866;48.374;10.766;2023-03-01T15:19:33;6.40;1.00
3701;DHT22;1866;48.374;10.766;2023-03-01T15:21:59;6.10;1.00
3701;DHT22;1866;48.374;10.766;2023-03-01T15:24:37;6.00;1.00
3701;DHT22;1866;48.374;10.766;2023-03-01T15:27:04;6.10;1.00
3701;DHT22;1866;48.374;10.766;2023-03-01T15:29:33;6.00;1.00
3701;DHT22;1866;48.374;10.766;2023-03-01T15:32:26;6.00;1.00
3701;DHT22;1866;48.374;10.766;2023-03-01T15:34:55;6.00;1.00
3701;DHT22;1866;48.374;10.766;2023-03-01T15:37:47;6.00;1.00
3701;DHT22;1866;48.374;10.766;2023-03-01T15:40:19;6.00;1.00
3701;DHT22;1866;48.374;10.766;2023-03-01T15:42:47;6.00;1.00
3701;DHT22;1866;48.374;10.766;2023-03-01T15:45:23;6.00;1.00
3701;DHT22;1866;48.374;10.766;2023-03-01T15:47:53;6.00;1.00
3701;DHT22;1866;48.374;10.766;2023-03-01T15:50:24;6.00;1.00
3701;DHT22;1866;48.374;10.766;2023-03-01T15:52:52;6.00;1.00
3701;DHT22;1866;48.374;10.766;2023-03-01T15:55:21;6.00;1.00
3701;DHT22;1866;48.374;10.766;2023-03-01T15:57:49;5.90;1.00
3701;DHT22;1866;48.374;10.766;2023-03-01T16:00:17;5.90;1.00
3701;DHT22;1866;48.374;10.766;2023-03-01T16:02:44;5.90;1.00
3701;DHT22;1866;48.374;10.766;2023-03-01T16:05:19;5.90;1.00
3701;DHT22;1866;48.374;10.766;2023-03-01T16:07:47;5.90;1.00
3701;DHT22;1866;48.374;10.766;2023-03-01T16:10:14;5.90;1.00
3701;DHT22;1866;48.374;10.766;2023-03-01T16:12:41;5.80;1.00
3701;DHT22;1866;48.374;10.766;2023-03-01T16:15:13;5.90;1.00
3701;DHT22;1866;48.374;10.766;2023-03-01T16:17:41;5.80;1.00
3701;DHT22;1866;48.374;10.766;2023-03-01T16:20:12;5.70;1.00
3701;DHT22;1866;48.374;10.766;2023-03-01T16:22:41;5.70;1.00
3701;DHT22;1866;48.374;10.766;2023-03-01T16:25:11;5.70;1.00
3701;DHT22;1866;48.374;10.766;2023-03-01T16:27:38;5.60;1.00
3701;DHT22;1866;48.374;10.766;2023-03-01T16:30:06;5.60;1.00
3701;DHT22;1866;48.374;10.766;2023-03-01T16:32:37;5.60;1.00
3701;DHT22;1866;48.374;10.766;2023-03-01T16:35:04;5.50;1.00
3701;DHT22;1866;48.374;10.766;2023-03-01T16:37:32;5.40;1.00
3701;DHT22;1866;48.374;10.766;2023-03-01T16:39:59;5.40;1.00
3701;DHT22;1866;48.374;10.766;2023-03-01T16:42:28;5.30;1.00
3701;DHT22;1866;48.374;10.766;2023-03-01T16:44:55;5.40;1.00
3701;DHT22;1866;48.374;10.766;2023-03-01T16:47:22;5.30;1.00
3701;DHT22;1866;48.374;10.766;2023-03-01T16:49:51;5.20;1.00